Time;durP1;ratioP1;P1;durP2;ratioP2;P2;SDS_P1;SDS_P2;PMS_P1;PMS_P2;Temp;Humidity;BMP_temperature;BMP_pressure;BME280_temperature;BME280_humidity;BME280_pressure;Samples;Min_cycle;Max_cycle;Signal;HPM_P1;HPM_P2
2024/01/16 00:00:09;;;;;;;0.00;0.00;;;22.50;48.20;;;;;;5009062;28;20628;-45
2024/01/16 00:02:40;;;;;;;0.00;0.00;;;22.50;48.20;;;;;;5008241;28;20233;-41
2024/01/16 00:05:11;;;;;;;0.00;0.00;;;22.60;48.30;;;;;;5008175;28;20308;-42
2024/01/16 00:07:44;;;;;;;0.00;0.00;;;22.60;48.40;;;;;;5008246;28;20222;-43
2024/01/16 00:10:15;;;;;;;0.00;0.00;;;22.60;48.60;;;;;;5008280;28;20208;-46
2024/01/16 00:12:45;;;;;;;0.00;0.00;;;22.60;48.30;;;;;;5008295;28;20229;-45
2024/01/16 00:15:16;;;;;;;0.10;0.10;;;22.70;48.30;;;;;;4997315;28;20202;-45
2024/01/16 00:17:47;;;;;;;0.10;0.10;;;22.70;48.20;;;;;;4987935;28;20197;-42
2024/01/16 00:20:17;;;;;;;0.00;0.00;;;22.70;48.20;;;;;;5000478;28;20209;-43
2024/01/16 00:22:50;;;;;;;0.10;0.10;;;22.70;48.20;;;;;;5008648;28;20240;-44
2024/01/16 00:25:22;;;;;;;0.00;0.00;;;22.70;48.10;;;;;;5008391;28;20216;-44
2024/01/16 00:27:53;;;;;;;0.00;0.00;;;22.80;48.10;;;;;;5007931;28;20197;-45
2024/01/16 00:30:24;;;;;;;0.00;0.00;;;22.80;48.10;;;;;;5007913;28;20203;-41
2024/01/16 00:32:54;;;;;;;0.00;0.00;;;22.80;48.10;;;;;;5007996;28;20279;-41
2024/01/16 00:35:25;;;;;;;0.10;0.10;;;22.80;48.10;;;;;;5008262;28;20192;-45
2024/01/16 00:37:58;;;;;;;0.10;0.10;;;22.80;48.00;;;;;;5008388;28;20668;-46
2024/01/16 00:40:28;;;;;;;0.00;0.00;;;22.80;47.90;;;;;;5007625;28;20205;-45
2024/01/16 00:42:59;;;;;;;0.10;0.10;;;22.80;47.90;;;;;;5007868;28;20232;-44
2024/01/16 00:45:30;;;;;;;0.00;0.00;;;22.80;47.90;;;;;;5008056;28;20199;-45
2024/01/16 00:48:00;;;;;;;0.00;0.00;;;22.90;47.90;;;;;;5008169;28;20661;-44
2024/01/16 00:50:31;;;;;;;0.10;0.10;;;22.90;47.80;;;;;;5008468;28;20533;-43
2024/01/16 00:53:04;;;;;;;0.00;0.00;;;22.90;47.70;;;;;;5007842;28;20640;-45
2024/01/16 00:55:34;;;;;;;0.10;0.10;;;22.90;47.70;;;;;;5007339;28;20201;-43
2024/01/16 00:58:05;;;;;;;0.10;0.10;;;22.90;47.70;;;;;;5007911;28;20228;-42
2024/01/16 01:00:37;;;;;;;0.00;0.00;;;22.90;47.60;;;;;;5022632;22;20196;-45
2024/01/16 01:03:07;;;;;;;0.00;0.00;;;22.90;47.60;;;;;;5026930;28;20228;-45
2024/01/16 01:05:38;;;;;;;0.10;0.10;;;22.90;47.60;;;;;;5026927;28;20664;-45
2024/01/16 01:08:11;;;;;;;0.00;0.00;;;22.90;47.60;;;;;;5027292;28;20203;-46
2024/01/16 01:10:41;;;;;;;0.00;0.00;;;23.00;47.70;;;;;;5027251;28;20206;-48
2024/01/16 01:13:12;;;;;;;0.00;0.00;;;23.00;47.70;;;;;;5027842;28;20223;-44
2024/01/16 01:15:43;;;;;;;0.00;0.00;;;23.00;47.70;;;;;;5027088;28;20204;-45
2024/01/16 01:18:14;;;;;;;0.00;0.00;;;23.00;47.70;;;;;;5027698;28;20192;-46
2024/01/16 01:20:44;;;;;;;0.10;0.10;;;23.00;47.70;;;;;;5030667;28;20196;-42
2024/01/16 01:23:17;;;;;;;0.00;0.00;;;23.00;47.70;;;;;;5030828;28;20231;-44
2024/01/16 01:25:48;;;;;;;0.00;0.00;;;23.00;47.70;;;;;;5031104;28;20208;-45
2024/01/16 01:28:18;;;;;;;0.08;0.08;;;23.00;47.70;;;;;;5031589;28;20211;-42
2024/01/16 01:30:49;;;;;;;0.00;0.00;;;23.00;47.70;;;;;;5030816;28;20258;-46
2024/01/16 01:33:20;;;;;;;0.03;0.03;;;23.10;47.80;;;;;;5030709;28;20220;-44
2024/01/16 01:35:50;;;;;;;0.00;0.00;;;23.00;47.70;;;;;;5031374;28;20204;-44
2024/01/16 01:38:23;;;;;;;0.03;0.03;;;23.00;47.70;;;;;;5031146;28;20204;-43
2024/01/16 01:40:53;;;;;;;0.00;0.00;;;23.10;47.80;;;;;;5031086;28;20711;-45
2024/01/16 01:43:25;;;;;;;0.03;0.03;;;23.10;47.70;;;;;;5031050;28;20228;-44
2024/01/16 01:46:10;;;;;;;0.00;0.00;;;23.10;47.80;;;;;;5031300;28;20204;-43
2024/01/16 01:48:42;;;;;;;0.00;0.00;;;23.10;47.80;;;;;;5031019;28;20684;-43
2024/01/16 01:51:14;;;;;;;0.00;0.00;;;23.10;47.70;;;;;;5029885;28;20626;-43
2024/01/16 01:53:48;;;;;;;0.10;0.10;;;23.10;47.80;;;;;;5030304;28;20774;-43
2024/01/16 01:56:21;;;;;;;0.00;0.00;;;23.10;47.80;;;;;;5030158;28;20627;-45
2024/01/16 01:58:55;;;;;;;0.00;0.00;;;23.10;47.80;;;;;;5029905;28;20192;-45
2024/01/16 02:01:27;;;;;;;0.00;0.00;;;23.10;47.80;;;;;;5033724;22;20235;-46
2024/01/16 02:04:00;;;;;;;0.00;0.00;;;23.10;47.80;;;;;;5011067;28;20237;-44
2024/01/16 02:06:30;;;;;;;0.00;0.00;;;23.10;47.80;;;;;;5011115;28;20201;-41
2024/01/16 02:09:06;;;;;;;0.00;0.00;;;23.20;47.80;;;;;;5030420;28;20211;-46
2024/01/16 02:11:37;;;;;;;0.10;0.10;;;23.20;47.80;;;;;;5030087;28;20219;-42
2024/01/16 02:14:08;;;;;;;0.10;0.10;;;23.20;47.80;;;;;;5028656;28;20207;-48
2024/01/16 02:16:40;;;;;;;0.00;0.00;;;23.20;47.80;;;;;;5010642;28;20204;-46
2024/01/16 02:19:11;;;;;;;0.00;0.00;;;23.20;47.80;;;;;;5010612;28;20212;-47
2024/01/16 02:21:44;;;;;;;0.00;0.00;;;23.20;47.80;;;;;;5010470;28;20250;-45
2024/01/16 02:24:18;;;;;;;0.05;0.05;;;23.30;47.80;;;;;;5010425;28;20229;-48
2024/01/16 02:26:49;;;;;;;0.00;0.00;;;23.30;47.80;;;;;;5010324;28;20240;-48
2024/01/16 02:29:19;;;;;;;0.10;0.10;;;23.30;47.80;;;;;;5010354;28;20200;-45
2024/01/16 02:31:50;;;;;;;0.00;0.00;;;23.30;47.80;;;;;;5010497;28;20220;-46
2024/01/16 02:34:21;;;;;;;0.00;0.00;;;23.30;47.70;;;;;;5010099;28;20208;-43
2024/01/16 02:36:51;;;;;;;0.00;0.00;;;23.30;47.80;;;;;;5011653;28;20201;-46
2024/01/16 02:39:24;;;;;;;0.00;0.00;;;23.30;47.80;;;;;;5029671;28;20208;-49
2024/01/16 02:41:55;;;;;;;0.00;0.00;;;23.40;47.80;;;;;;5029333;28;20222;-48
2024/01/16 02:44:26;;;;;;;0.00;0.00;;;23.40;47.90;;;;;;5030354;28;20235;-43
2024/01/16 02:46:56;;;;;;;0.10;0.10;;;23.40;47.80;;;;;;5011490;28;20647;-43
2024/01/16 02:49:27;;;;;;;0.00;0.00;;;23.40;47.80;;;;;;5010571;28;20196;-45
2024/01/16 02:51:58;;;;;;;0.00;0.00;;;23.40;47.80;;;;;;5009989;28;20311;-46
2024/01/16 02:54:31;;;;;;;0.00;0.00;;;23.40;47.80;;;;;;5010263;28;20535;-43
2024/01/16 02:57:01;;;;;;;0.00;0.00;;;23.40;47.80;;;;;;5009728;28;20224;-47
2024/01/16 02:59:32;;;;;;;0.00;0.00;;;23.40;47.70;;;;;;5009922;28;20201;-44
2024/01/16 03:02:03;;;;;;;0.00;0.00;;;23.40;47.70;;;;;;5009515;28;20228;-45
2024/01/16 03:04:33;;;;;;;0.00;0.00;;;23.40;48.20;;;;;;5009444;28;20230;-46
2024/01/16 03:07:04;;;;;;;0.00;0.00;;;23.40;47.80;;;;;;5012837;28;20526;-49
2024/01/16 03:09:36;;;;;;;0.00;0.00;;;23.50;47.90;;;;;;5028594;28;20207;-41
2024/01/16 03:12:08;;;;;;;0.00;0.00;;;23.50;47.80;;;;;;5021888;28;20846;-41
2024/01/16 03:14:38;;;;;;;0.00;0.00;;;23.50;47.80;;;;;;5009174;28;20196;-44
2024/01/16 03:17:09;;;;;;;0.00;0.00;;;23.50;47.90;;;;;;5010041;28;20204;-42
2024/01/16 03:19:41;;;;;;;0.10;0.10;;;23.50;47.80;;;;;;5009157;28;20657;-41
2024/01/16 03:22:11;;;;;;;0.00;0.00;;;23.60;47.80;;;;;;5009050;28;20575;-44
2024/01/16 03:24:44;;;;;;;0.00;0.00;;;23.50;47.70;;;;;;5009351;28;20867;-41
2024/01/16 03:27:15;;;;;;;0.00;0.00;;;23.60;47.80;;;;;;5008398;28;20615;-41
2024/01/16 03:29:45;;;;;;;0.00;0.00;;;23.60;47.70;;;;;;5009651;28;20240;-47
2024/01/16 03:32:16;;;;;;;0.00;0.00;;;23.70;47.70;;;;;;5006282;28;20228;-44
2024/01/16 03:34:47;;;;;;;0.00;0.00;;;23.70;47.70;;;;;;5008212;28;20200;-46
2024/01/16 03:37:17;;;;;;;0.10;0.10;;;23.70;47.70;;;;;;5012865;28;20195;-46
2024/01/16 03:39:50;;;;;;;0.00;0.00;;;23.70;47.70;;;;;;5009121;28;20662;-44
2024/01/16 03:42:20;;;;;;;0.00;0.00;;;23.70;47.70;;;;;;5008067;28;20708;-45
2024/01/16 03:44:51;;;;;;;0.00;0.00;;;23.80;47.70;;;;;;5009892;28;20231;-50
2024/01/16 03:47:22;;;;;;;0.00;0.00;;;23.80;47.70;;;;;;5009374;28;20287;-47
2024/01/16 03:49:53;;;;;;;0.00;0.00;;;23.80;47.60;;;;;;5008915;28;20254;-46
2024/01/16 03:52:23;;;;;;;0.03;0.03;;;23.80;47.60;;;;;;5009068;28;20220;-46
2024/01/16 03:54:56;;;;;;;0.00;0.00;;;23.80;47.60;;;;;;5009115;28;20203;-48
2024/01/16 03:57:26;;;;;;;0.10;0.10;;;23.90;47.60;;;;;;5009330;28;20216;-48
2024/01/16 03:59:57;;;;;;;0.00;0.00;;;23.90;48.20;;;;;;5025514;28;20212;-44
2024/01/16 04:02:28;;;;;;;0.00;0.00;;;23.90;47.50;;;;;;5028262;28;20267;-48
2024/01/16 04:04:58;;;;;;;0.00;0.00;;;24.00;47.50;;;;;;5016827;28;20228;-46
2024/01/16 04:07:29;;;;;;;0.00;0.00;;;24.00;47.40;;;;;;5015223;28;20203;-48
2024/01/16 04:10:02;;;;;;;0.00;0.00;;;24.00;47.40;;;;;;5028744;28;20200;-43
2024/01/16 04:12:33;;;;;;;0.00;0.00;;;24.00;47.20;;;;;;5028095;28;20371;-48
2024/01/16 04:15:06;;;;;;;0.10;0.10;;;24.10;47.20;;;;;;5018478;28;20193;-49
2024/01/16 04:17:36;;;;;;;0.00;0.00;;;24.10;47.10;;;;;;5008766;28;20204;-47
2024/01/16 04:20:09;;;;;;;0.00;0.00;;;24.10;47.10;;;;;;5008855;28;20201;-47
2024/01/16 04:22:39;;;;;;;0.00;0.00;;;24.20;47.10;;;;;;5007948;28;20231;-44
2024/01/16 04:25:12;;;;;;;0.00;0.00;;;24.20;47.10;;;;;;5008528;28;20229;-48
2024/01/16 04:27:43;;;;;;;0.10;0.10;;;24.20;46.90;;;;;;5007722;28;20657;-44
2024/01/16 04:30:14;;;;;;;0.00;0.00;;;24.20;46.90;;;;;;5008183;28;20205;-48
2024/01/16 04:32:45;;;;;;;0.00;0.00;;;24.20;46.80;;;;;;5007584;28;20220;-47
2024/01/16 04:35:15;;;;;;;0.10;0.10;;;24.30;46.80;;;;;;5007701;28;20201;-47
2024/01/16 04:37:46;;;;;;;0.00;0.00;;;24.30;46.80;;;;;;5017012;28;20230;-42
2024/01/16 04:40:18;;;;;;;0.00;0.00;;;24.30;47.40;;;;;;5028231;28;20208;-44
2024/01/16 04:42:49;;;;;;;0.00;0.00;;;24.30;46.70;;;;;;5019260;28;20216;-45
2024/01/16 04:45:20;;;;;;;0.00;0.00;;;24.40;46.70;;;;;;5007935;28;20228;-44
2024/01/16 04:47:50;;;;;;;0.00;0.00;;;24.40;46.70;;;;;;5007670;28;20196;-42
2024/01/16 04:50:21;;;;;;;0.10;0.10;;;24.40;46.60;;;;;;5007602;28;20653;-45
2024/01/16 04:52:54;;;;;;;0.00;0.00;;;24.40;46.70;;;;;;5008427;28;20225;-43
2024/01/16 04:55:26;;;;;;;0.00;0.00;;;24.50;46.60;;;;;;5008255;28;20205;-45
2024/01/16 04:57:57;;;;;;;0.10;0.10;;;24.50;46.50;;;;;;5008402;28;20197;-49
2024/01/16 05:00:28;;;;;;;0.00;0.00;;;24.50;46.50;;;;;;5008083;28;20208;-44
2024/01/16 05:02:58;;;;;;;0.00;0.00;;;24.50;46.30;;;;;;5007623;28;20225;-45
2024/01/16 05:05:29;;;;;;;0.00;0.00;;;24.50;46.30;;;;;;5008912;28;20248;-45
2024/01/16 05:08:00;;;;;;;0.00;0.00;;;24.60;46.30;;;;;;5018669;28;20204;-44
2024/01/16 05:10:32;;;;;;;0.10;0.10;;;24.60;46.30;;;;;;5012621;28;20208;-47
2024/01/16 05:13:03;;;;;;;0.00;0.00;;;24.60;46.20;;;;;;5007246;28;20587;-46
2024/01/16 05:15:34;;;;;;;0.00;0.00;;;24.70;46.20;;;;;;5008302;28;20204;-45
2024/01/16 05:18:04;;;;;;;0.00;0.00;;;24.70;46.10;;;;;;5007449;28;20204;-46
2024/01/16 05:20:35;;;;;;;0.10;0.10;;;24.70;46.10;;;;;;5007859;28;20288;-41
2024/01/16 05:23:06;;;;;;;0.00;0.00;;;24.70;46.00;;;;;;5007994;28;20220;-46
2024/01/16 05:25:38;;;;;;;0.00;0.00;;;24.70;46.00;;;;;;5007950;28;20228;-44
2024/01/16 05:28:09;;;;;;;0.08;0.08;;;24.70;45.90;;;;;;5006823;28;20204;-44
2024/01/16 05:30:40;;;;;;;0.00;0.00;;;24.70;45.90;;;;;;5007044;28;20202;-44
2024/01/16 05:33:11;;;;;;;0.00;0.00;;;24.70;46.00;;;;;;5007926;28;20220;-47
2024/01/16 05:35:41;;;;;;;0.00;0.00;;;24.80;46.00;;;;;;5007986;28;20668;-43
2024/01/16 05:38:12;;;;;;;0.00;0.00;;;24.80;46.00;;;;;;5008648;28;20204;-42
2024/01/16 05:40:45;;;;;;;0.00;0.00;;;24.80;45.90;;;;;;5007901;28;20304;-43
2024/01/16 05:43:16;;;;;;;0.00;0.00;;;24.80;45.90;;;;;;5007956;28;20220;-46
2024/01/16 05:45:47;;;;;;;0.00;0.00;;;24.80;45.90;;;;;;5007035;28;20256;-45
2024/01/16 05:48:17;;;;;;;0.00;0.00;;;24.90;46.00;;;;;;5006282;28;20208;-45
2024/01/16 05:50:48;;;;;;;0.00;0.00;;;24.90;45.90;;;;;;5000495;28;20209;-46
2024/01/16 05:53:19;;;;;;;0.00;0.00;;;24.90;45.90;;;;;;4991569;28;20690;-44
2024/01/16 05:55:51;;;;;;;0.00;0.00;;;24.90;45.90;;;;;;4991731;28;20210;-47
2024/01/16 05:58:22;;;;;;;0.00;0.00;;;24.90;45.90;;;;;;4998815;28;20192;-44
2024/01/16 06:00:52;;;;;;;0.00;0.00;;;24.90;45.90;;;;;;5009992;28;20200;-44
2024/01/16 06:03:25;;;;;;;0.00;0.00;;;24.90;45.80;;;;;;5010793;28;20240;-47
2024/01/16 06:05:56;;;;;;;0.00;0.00;;;24.90;45.80;;;;;;5012475;28;20696;-47
2024/01/16 06:08:27;;;;;;;0.03;0.03;;;24.90;45.90;;;;;;5028950;28;20211;-46
2024/01/16 06:10:59;;;;;;;0.00;0.00;;;24.90;45.80;;;;;;5034038;28;20200;-44
2024/01/16 06:13:31;;;;;;;0.00;0.00;;;24.90;45.80;;;;;;5034020;28;20196;-49
2024/01/16 06:16:02;;;;;;;0.00;0.00;;;24.90;45.80;;;;;;5033971;28;20247;-47
2024/01/16 06:18:33;;;;;;;0.00;0.00;;;24.90;45.90;;;;;;5034389;28;20685;-47
2024/01/16 06:21:04;;;;;;;0.00;0.00;;;24.90;45.90;;;;;;5034005;28;20196;-46
2024/01/16 06:23:35;;;;;;;0.00;0.00;;;24.90;45.90;;;;;;5033990;28;20200;-46
2024/01/16 06:26:10;;;;;;;0.00;0.00;;;24.90;45.90;;;;;;5033368;28;20305;-47
2024/01/16 06:28:42;;;;;;;0.00;0.00;;;24.90;46.10;;;;;;5033086;28;20652;-49
2024/01/16 06:31:12;;;;;;;0.00;0.00;;;24.90;46.00;;;;;;5032591;28;20203;-49
2024/01/16 06:33:43;;;;;;;0.00;0.00;;;25.00;45.90;;;;;;5026261;28;20193;-47
2024/01/16 06:36:14;;;;;;;0.00;0.00;;;25.00;46.00;;;;;;5013530;28;20197;-44
2024/01/16 06:38:44;;;;;;;0.00;0.00;;;25.00;46.10;;;;;;5030081;28;20211;-47
2024/01/16 06:41:17;;;;;;;0.00;0.00;;;25.00;46.10;;;;;;5033026;28;20204;-48
2024/01/16 06:43:47;;;;;;;0.00;0.00;;;25.00;46.00;;;;;;5033457;28;20204;-48
2024/01/16 06:46:18;;;;;;;0.00;0.00;;;25.00;45.90;;;;;;5033302;28;20200;-50
2024/01/16 06:48:49;;;;;;;0.00;0.00;;;25.00;45.90;;;;;;5033788;28;20196;-45
2024/01/16 06:51:20;;;;;;;0.00;0.00;;;25.00;45.80;;;;;;5033773;28;20243;-44
2024/01/16 06:53:50;;;;;;;0.00;0.00;;;25.00;45.80;;;;;;5032900;28;20199;-46
2024/01/16 06:56:24;;;;;;;0.00;0.00;;;25.00;45.80;;;;;;5032894;28;20196;-45
2024/01/16 06:58:54;;;;;;;0.00;0.00;;;25.00;45.80;;;;;;5033389;28;20262;-46
2024/01/16 07:01:25;;;;;;;0.10;0.10;;;25.10;45.80;;;;;;5032724;28;20275;-47
2024/01/16 07:03:56;;;;;;;0.00;0.00;;;25.10;45.80;;;;;;5033837;28;20591;-45
2024/01/16 07:06:26;;;;;;;0.00;0.00;;;25.10;45.80;;;;;;5033654;28;20192;-45
2024/01/16 07:08:57;;;;;;;0.00;0.00;;;25.00;45.70;;;;;;5032780;28;20208;-46
2024/01/16 07:11:30;;;;;;;0.00;0.00;;;25.10;45.90;;;;;;5032499;28;20220;-44
2024/01/16 07:14:01;;;;;;;0.00;0.00;;;25.00;45.80;;;;;;5032880;28;20204;-44
2024/01/16 07:16:31;;;;;;;0.00;0.00;;;25.10;45.80;;;;;;5031639;28;20657;-48
2024/01/16 07:19:02;;;;;;;0.00;0.00;;;25.10;45.80;;;;;;5028871;28;20189;-46
2024/01/16 07:21:33;;;;;;;0.00;0.00;;;25.10;45.80;;;;;;5013070;28;20217;-46
2024/01/16 07:24:04;;;;;;;0.00;0.00;;;25.10;45.70;;;;;;5012451;28;20262;-47
2024/01/16 07:26:36;;;;;;;0.00;0.00;;;25.10;45.70;;;;;;5012504;28;20668;-47
2024/01/16 07:29:07;;;;;;;0.08;0.08;;;25.10;45.70;;;;;;5012754;28;20229;-49
2024/01/16 07:31:37;;;;;;;0.00;0.00;;;25.10;45.70;;;;;;5012575;28;20711;-48
2024/01/16 07:34:08;;;;;;;0.00;0.00;;;25.10;45.60;;;;;;5012904;28;20197;-46
2024/01/16 07:36:39;;;;;;;0.00;0.00;;;25.10;45.70;;;;;;5012803;28;20201;-44
2024/01/16 07:39:10;;;;;;;0.00;0.00;;;25.10;45.60;;;;;;5001775;28;20193;-45
2024/01/16 07:41:42;;;;;;;0.00;0.00;;;25.10;45.70;;;;;;5012477;28;20228;-46
2024/01/16 07:44:13;;;;;;;0.03;0.03;;;25.10;45.60;;;;;;5012337;28;20201;-47
2024/01/16 07:46:43;;;;;;;0.00;0.00;;;25.10;45.60;;;;;;5012640;28;20221;-46
2024/01/16 07:49:14;;;;;;;0.00;0.00;;;25.10;45.60;;;;;;5012552;28;20200;-45
2024/01/16 07:51:45;;;;;;;0.00;0.00;;;25.10;45.60;;;;;;5012703;28;20229;-47
2024/01/16 07:54:15;;;;;;;0.00;0.00;;;25.10;45.60;;;;;;5012847;28;20542;-47
2024/01/16 07:56:48;;;;;;;0.00;0.00;;;25.10;45.60;;;;;;5012718;28;20203;-46
2024/01/16 07:59:18;;;;;;;0.00;0.00;;;25.10;45.60;;;;;;5012132;28;20204;-57
2024/01/16 08:01:49;;;;;;;0.00;0.00;;;25.00;45.60;;;;;;5012052;28;20224;-45
2024/01/16 08:04:20;;;;;;;0.00;0.00;;;25.00;45.40;;;;;;5012980;28;20217;-46
2024/01/16 08:06:50;;;;;;;0.10;0.10;;;25.00;45.30;;;;;;5013688;28;20211;-47
2024/01/16 08:09:21;;;;;;;0.00;0.00;;;25.00;45.30;;;;;;5010024;28;20208;-49
2024/01/16 08:11:54;;;;;;;0.00;0.00;;;25.00;45.30;;;;;;5004847;28;20311;-49
2024/01/16 08:14:25;;;;;;;0.00;0.00;;;25.00;45.40;;;;;;5007294;28;20210;-46
2024/01/16 08:16:56;;;;;;;0.10;0.10;;;25.00;45.40;;;;;;5008124;28;20201;-48
2024/01/16 08:19:26;;;;;;;0.00;0.00;;;25.00;45.50;;;;;;5008905;28;20204;-46
2024/01/16 08:21:57;;;;;;;0.00;0.00;;;25.00;45.50;;;;;;5008442;28;20227;-47
2024/01/16 08:24:28;;;;;;;0.00;0.00;;;24.90;45.40;;;;;;5008248;28;20200;-46
2024/01/16 08:27:00;;;;;;;0.00;0.00;;;25.00;45.50;;;;;;5007129;28;20204;-45
2024/01/16 08:29:31;;;;;;;0.00;0.00;;;24.90;45.40;;;;;;5016208;28;20200;-46
2024/01/16 08:32:01;;;;;;;0.00;0.00;;;24.90;45.40;;;;;;5027292;28;20278;-46
2024/01/16 08:34:32;;;;;;;0.10;0.10;;;24.90;45.40;;;;;;5026033;28;20200;-43
2024/01/16 08:37:04;;;;;;;0.00;0.00;;;24.90;45.50;;;;;;5027010;28;20208;-49
2024/01/16 08:39:35;;;;;;;0.00;0.00;;;24.90;45.40;;;;;;5020222;28;20661;-43
2024/01/16 08:42:11;;;;;;;0.00;0.00;;;24.90;45.40;;;;;;5008514;28;20228;-44
2024/01/16 08:44:42;;;;;;;0.00;0.00;;;24.90;45.50;;;;;;5007597;28;20202;-45
2024/01/16 08:47:12;;;;;;;0.00;0.00;;;24.80;45.40;;;;;;5007943;28;20206;-46
2024/01/16 08:49:43;;;;;;;0.00;0.00;;;24.80;45.40;;;;;;5007699;28;20205;-45
2024/01/16 08:52:14;;;;;;;0.00;0.00;;;24.80;45.50;;;;;;5015346;28;20279;-46
2024/01/16 08:54:44;;;;;;;0.00;0.00;;;24.80;45.50;;;;;;5007600;28;20200;-47
2024/01/16 08:57:17;;;;;;;0.00;0.00;;;24.80;45.50;;;;;;5007640;28;20201;-44
2024/01/16 08:59:47;;;;;;;0.00;0.00;;;24.80;45.50;;;;;;5008298;28;20208;-49
2024/01/16 09:02:18;;;;;;;0.00;0.00;;;24.70;45.40;;;;;;5007899;28;20232;-49
2024/01/16 09:04:50;;;;;;;0.00;0.00;;;24.80;45.50;;;;;;5008031;28;20591;-49
2024/01/16 09:07:20;;;;;;;0.00;0.00;;;24.70;45.40;;;;;;5012700;28;20204;-49
2024/01/16 09:09:51;;;;;;;0.00;0.00;;;24.70;45.40;;;;;;5027862;28;20204;-52
2024/01/16 09:12:23;;;;;;;0.00;0.00;;;24.70;45.40;;;;;;5027045;28;20777;-48
2024/01/16 09:14:54;;;;;;;0.00;0.00;;;24.70;45.40;;;;;;5026865;28;20708;-49
2024/01/16 09:17:25;;;;;;;0.00;0.00;;;24.70;45.40;;;;;;5024035;28;20203;-46
2024/01/16 09:19:56;;;;;;;0.00;0.00;;;24.70;45.40;;;;;;5007604;28;20721;-46
2024/01/16 09:22:27;;;;;;;0.00;0.00;;;24.70;45.40;;;;;;5007316;28;20700;-48
2024/01/16 09:24:57;;;;;;;0.00;0.00;;;24.60;45.30;;;;;;5007405;28;20200;-48
2024/01/16 09:27:30;;;;;;;0.03;0.03;;;24.60;45.30;;;;;;5007704;28;20207;-43
2024/01/16 09:30:00;;;;;;;0.00;0.00;;;24.60;45.30;;;;;;5006992;28;20695;-44
2024/01/16 09:32:31;;;;;;;0.00;0.00;;;24.60;45.30;;;;;;5007229;28;20850;-41
2024/01/16 09:35:02;;;;;;;0.00;0.00;;;24.50;45.30;;;;;;5007337;28;20545;-43
2024/01/16 09:37:33;;;;;;;0.00;0.00;;;24.50;45.30;;;;;;5014722;28;20204;-42
2024/01/16 09:40:05;;;;;;;0.00;0.00;;;24.50;45.30;;;;;;5027171;28;20204;-43
2024/01/16 09:42:38;;;;;;;0.00;0.00;;;24.50;45.40;;;;;;5027228;28;20230;-44
2024/01/16 09:45:09;;;;;;;0.00;0.00;;;24.50;45.40;;;;;;5010363;28;20661;-47
2024/01/16 09:47:41;;;;;;;0.00;0.00;;;24.50;45.40;;;;;;5010965;28;20201;-47
2024/01/16 09:50:12;;;;;;;0.00;0.00;;;24.50;45.40;;;;;;5011237;28;20212;-46
2024/01/16 09:52:43;;;;;;;0.00;0.00;;;24.40;45.40;;;;;;5010764;28;20229;-44
2024/01/16 09:55:14;;;;;;;0.00;0.00;;;24.40;45.40;;;;;;5011642;28;20612;-44
2024/01/16 09:57:52;;;;;;;0.00;0.00;;;24.40;45.40;;;;;;5009454;28;20209;-42
2024/01/16 10:00:24;;;;;;;0.00;0.00;;;24.40;45.40;;;;;;5011325;28;20215;-47
2024/01/16 10:02:58;;;;;;;0.00;0.00;;;24.40;45.40;;;;;;5009907;28;20239;-48
2024/01/16 10:05:29;;;;;;;0.00;0.00;;;24.40;46.00;;;;;;5011443;28;20755;-43
2024/01/16 10:08:00;;;;;;;0.00;0.00;;;24.30;45.30;;;;;;5021033;28;20211;-47
2024/01/16 10:10:31;;;;;;;0.00;0.00;;;24.30;45.40;;;;;;4991027;28;20712;-49
2024/01/16 10:13:04;;;;;;;0.05;0.05;;;24.30;45.30;;;;;;4991864;28;20221;-47
2024/01/16 10:15:36;;;;;;;0.00;0.00;;;24.30;45.30;;;;;;4991285;28;20488;-43
2024/01/16 10:18:07;;;;;;;0.00;0.00;;;24.30;45.40;;;;;;4991372;28;20201;-45
2024/01/16 10:20:38;;;;;;;0.00;0.00;;;24.20;45.30;;;;;;4991341;28;20285;-49
2024/01/16 10:23:08;;;;;;;0.00;0.00;;;24.20;45.30;;;;;;5005845;28;20735;-45
2024/01/16 10:25:39;;;;;;;0.00;0.00;;;24.20;45.30;;;;;;5010598;28;20236;-42
2024/01/16 10:28:12;;;;;;;0.00;0.00;;;24.20;45.30;;;;;;5010084;28;20201;-43
2024/01/16 10:30:42;;;;;;;0.00;0.00;;;24.20;45.30;;;;;;5010488;28;20700;-49
2024/01/16 10:33:19;;;;;;;0.00;0.00;;;24.20;45.30;;;;;;5009952;28;20217;-46
2024/01/16 10:35:50;;;;;;;0.00;0.00;;;24.20;45.30;;;;;;4990456;28;20220;-46
2024/01/16 10:38:25;;;;;;;0.00;0.00;;;24.20;45.30;;;;;;5018079;28;20207;-49
2024/01/16 10:41:10;;;;;;;0.08;0.08;;;24.10;45.30;;;;;;5030353;28;20203;-49
2024/01/16 10:43:44;;;;;;;0.00;0.00;;;24.10;45.30;;;;;;5028823;28;20219;-47
2024/01/16 10:46:15;;;;;;;0.00;0.00;;;24.10;45.30;;;;;;5029662;28;20224;-49
2024/01/16 10:48:47;;;;;;;0.00;0.00;;;24.10;45.30;;;;;;5009470;28;20197;-44
2024/01/16 10:51:18;;;;;;;0.00;0.00;;;24.00;45.30;;;;;;5008973;28;20207;-48
2024/01/16 10:53:50;;;;;;;0.00;0.00;;;24.00;45.30;;;;;;5010146;28;20259;-43
2024/01/16 10:56:21;;;;;;;0.00;0.00;;;24.00;45.90;;;;;;5010190;28;20201;-46
2024/01/16 10:59:01;;;;;;;0.00;0.00;;;24.00;45.30;;;;;;5009659;28;20211;-49
2024/01/16 11:01:33;;;;;;;0.10;0.10;;;24.00;45.30;;;;;;5009381;28;20697;-48
2024/01/16 11:04:05;;;;;;;0.00;0.00;;;24.00;45.30;;;;;;5010733;28;20247;-47
2024/01/16 11:06:36;;;;;;;0.00;0.00;;;23.90;45.20;;;;;;5009294;28;20224;-48
2024/01/16 11:09:07;;;;;;;0.00;0.00;;;23.90;45.30;;;;;;4989556;28;20228;-52
2024/01/16 11:11:39;;;;;;;0.00;0.00;;;23.80;45.20;;;;;;5005258;28;20228;-45
2024/01/16 11:14:13;;;;;;;0.00;0.00;;;23.90;45.30;;;;;;5010318;28;20197;-45
2024/01/16 11:16:44;;;;;;;0.00;0.00;;;23.80;45.20;;;;;;5009504;28;20598;-45
2024/01/16 11:19:16;;;;;;;0.00;0.00;;;23.80;45.30;;;;;;5009090;28;20711;-44
2024/01/16 11:21:48;;;;;;;0.00;0.00;;;23.70;45.30;;;;;;5011285;28;20224;-46
2024/01/16 11:24:18;;;;;;;0.00;0.00;;;23.70;45.30;;;;;;5013602;28;20197;-49
2024/01/16 11:26:49;;;;;;;0.00;0.00;;;23.70;45.30;;;;;;5011923;28;20220;-47
2024/01/16 11:29:40;;;;;;;0.00;0.00;;;23.70;45.30;;;;;;5013497;28;20200;-48
2024/01/16 11:32:11;;;;;;;0.05;0.05;;;23.70;45.40;;;;;;5012794;28;20286;-48
2024/01/16 11:35:00;;;;;;;0.00;0.00;;;23.70;45.30;;;;;;5013642;28;20201;-50
2024/01/16 11:37:34;;;;;;;0.05;0.05;;;23.60;45.20;;;;;;5019757;28;20207;-49
2024/01/16 11:40:26;;;;;;;0.10;0.10;;;23.70;45.30;;;;;;5032823;28;20234;-50
2024/01/16 11:42:57;;;;;;;0.10;0.10;;;23.60;45.30;;;;;;5030251;28;20220;-47
2024/01/16 11:45:54;;;;;;;0.00;0.00;;;23.60;45.20;;;;;;5031868;28;20239;-46
2024/01/16 11:48:24;;;;;;;0.00;0.00;;;23.50;45.20;;;;;;4992719;28;20198;-47
2024/01/16 11:50:55;;;;;;;0.00;0.00;;;23.50;45.20;;;;;;5006912;28;20189;-48
2024/01/16 11:53:40;;;;;;;0.00;0.00;;;23.50;45.30;;;;;;5006352;28;20221;-47
2024/01/16 11:56:37;;;;;;;0.00;0.00;;;23.40;45.20;;;;;;4999330;28;20201;-46
2024/01/16 11:59:34;;;;;;;0.00;0.00;;;23.40;45.20;;;;;;4992731;28;20232;-46
2024/01/16 12:02:13;;;;;;;0.00;0.00;;;23.40;45.30;;;;;;4992897;28;20252;-46
2024/01/16 12:04:44;;;;;;;0.08;0.08;;;23.40;45.30;;;;;;4993078;28;20197;-45
2024/01/16 12:07:14;;;;;;;0.00;0.00;;;23.40;45.30;;;;;;5011162;28;20224;-48
2024/01/16 12:09:45;;;;;;;0.00;0.00;;;23.30;45.30;;;;;;5031510;28;20200;-46
2024/01/16 12:12:20;;;;;;;0.10;0.10;;;23.30;45.40;;;;;;5031364;28;20219;-47
2024/01/16 12:14:56;;;;;;;0.03;0.03;;;23.30;45.40;;;;;;5032309;28;20285;-49
2024/01/16 12:17:28;;;;;;;0.00;0.00;;;23.30;45.40;;;;;;5021571;28;20547;-47
2024/01/16 12:19:59;;;;;;;0.00;0.00;;;23.20;45.30;;;;;;5012134;28;20645;-50
2024/01/16 12:22:30;;;;;;;0.10;0.10;;;23.20;45.30;;;;;;5011520;28;20612;-50
2024/01/16 12:25:04;;;;;;;0.10;0.10;;;23.30;45.40;;;;;;5008906;28;20662;-49
2024/01/16 12:27:35;;;;;;;0.10;0.10;;;23.20;45.30;;;;;;5011269;28;20713;-45
2024/01/16 12:30:13;;;;;;;0.10;0.10;;;23.20;45.30;;;;;;5012059;28;20216;-51
2024/01/16 12:32:45;;;;;;;0.10;0.10;;;23.10;45.30;;;;;;5009475;28;20208;-49
2024/01/16 12:35:21;;;;;;;0.00;0.00;;;23.10;45.30;;;;;;5011097;28;20192;-49
2024/01/16 12:38:09;;;;;;;0.00;0.00;;;23.20;45.30;;;;;;5013171;28;20196;-50
2024/01/16 12:40:41;;;;;;;0.00;0.00;;;23.10;45.30;;;;;;5011268;28;20653;-48
2024/01/16 12:43:12;;;;;;;0.00;0.00;;;23.10;45.30;;;;;;5011506;28;20251;-52
2024/01/16 12:45:44;;;;;;;0.10;0.10;;;23.10;45.30;;;;;;5009355;28;20196;-46
2024/01/16 12:48:24;;;;;;;0.10;0.10;;;23.00;45.20;;;;;;5011699;28;20207;-46
2024/01/16 12:51:02;;;;;;;0.00;0.00;;;23.00;45.30;;;;;;5011302;28;20227;-50
2024/01/16 12:53:33;;;;;;;0.00;0.00;;;23.00;45.30;;;;;;5011171;28;20677;-50
2024/01/16 12:56:04;;;;;;;0.08;0.08;;;23.00;45.30;;;;;;5009326;28;20224;-48
2024/01/16 12:58:40;;;;;;;0.10;0.10;;;22.90;45.30;;;;;;5011034;28;20657;-47
2024/01/16 13:01:31;;;;;;;0.00;0.00;;;22.90;45.30;;;;;;5011287;28;20235;-48
2024/01/16 13:04:07;;;;;;;0.00;0.00;;;22.90;45.30;;;;;;5009745;28;20291;-49
2024/01/16 13:06:38;;;;;;;0.00;0.00;;;22.90;45.30;;;;;;5011256;28;20224;-51
2024/01/16 13:09:10;;;;;;;0.10;0.10;;;22.90;45.40;;;;;;5011302;28;20247;-49
2024/01/16 13:11:54;;;;;;;0.10;0.10;;;22.90;45.30;;;;;;5011533;28;20763;-47